Terminal Aerodrome Forecast
Issued by NWS

Current Version | Previous Version | Text Only | Print | Product List | Glossary On
Versions: 1 2 3 4 5 6 7 8 9 10 11 12 13 14 15 16 17
821
FTUS41 KLWX 192333
TAFMTN
TAF
KMTN 192333Z 2000/2024 27013G24KT P6SM BKN050
     FM200800 28012G21KT P6SM SCT050
     FM201200 28010G18KT P6SM FEW250
     FM202100 24009KT P6SM SKC
      AMD NOT SKED 2002/2012=

USA.gov is the U.S. government's official web portal to all federal, state and local government web resources and services.